Time;durP1;ratioP1;P1;durP2;ratioP2;P2;SDS_P1;SDS_P2;PMS_P1;PMS_P2;Temp;Humidity;BMP_temperature;BMP_pressure;BME280_temperature;BME280_humidity;BME280_pressure;Samples;Min_cycle;Max_cycle;Signal;HPM_P1;HPM_P2
2023/03/30 00:02:37;;;;;;;9.10;4.70;;;;;;;;;;4978196;28;20403;-74
2023/03/30 00:05:24;;;;;;;6.53;4.53;;;;;;;;;;4964154;28;20089;-74
2023/03/30 00:08:10;;;;;;;8.05;4.30;;;;;;;;;;4977998;28;20454;-74
2023/03/30 00:10:59;;;;;;;6.38;4.32;;;;;;;;;;4977330;28;20030;-73
2023/03/30 00:13:45;;;;;;;6.30;4.55;;;;;;;;;;4964912;28;20034;-74
2023/03/30 00:16:31;;;;;;;6.00;4.22;;;;;;;;;;4979598;28;20451;-74
2023/03/30 00:19:16;;;;;;;7.10;4.60;;;;;;;;;;4965477;28;20058;-74
2023/03/30 00:22:06;;;;;;;5.88;4.15;;;;;;;;;;4981487;28;20427;-73
2023/03/30 00:24:51;;;;;;;9.65;4.88;;;;;;;;;;4986975;28;20050;-73
2023/03/30 00:27:38;;;;;;;8.80;4.75;;;;;;;;;;4972116;28;20038;-74
2023/03/30 00:30:23;;;;;;;7.20;4.53;;;;;;;;;;4966246;28;20022;-74
2023/03/30 00:33:09;;;;;;;6.25;4.57;;;;;;;;;;4978452;28;20046;-72
2023/03/30 00:35:56;;;;;;;6.90;4.70;;;;;;;;;;4978990;28;20376;-74
2023/03/30 00:38:41;;;;;;;9.27;5.05;;;;;;;;;;4983187;28;20027;-76
2023/03/30 00:41:27;;;;;;;7.10;4.60;;;;;;;;;;4989426;28;20102;-74
2023/03/30 00:44:31;;;;;;;7.38;4.70;;;;;;;;;;4977406;28;20023;-74
2023/03/30 00:47:17;;;;;;;7.25;4.50;;;;;;;;;;4978241;28;20030;-74
2023/03/30 00:50:03;;;;;;;5.90;3.78;;;;;;;;;;4977812;28;20051;-75
2023/03/30 00:52:51;;;;;;;8.10;4.60;;;;;;;;;;4976830;28;20358;-73
2023/03/30 00:55:38;;;;;;;9.63;4.70;;;;;;;;;;4978024;28;20510;-75
2023/03/30 00:58:24;;;;;;;7.18;4.60;;;;;;;;;;4986805;28;20439;-74
2023/03/30 01:01:11;;;;;;;7.18;4.90;;;;;;;;;;4988884;28;20038;-72
2023/03/30 01:03:58;;;;;;;6.72;4.38;;;;;;;;;;4963658;28;20094;-72
2023/03/30 01:06:47;;;;;;;8.85;5.15;;;;;;;;;;4977622;28;20026;-72
2023/03/30 01:09:33;;;;;;;11.32;5.30;;;;;;;;;;4977113;28;20033;-72
2023/03/30 01:12:19;;;;;;;8.95;5.25;;;;;;;;;;4976632;28;20026;-72
2023/03/30 01:15:06;;;;;;;8.90;5.28;;;;;;;;;;4977438;28;20022;-73
2023/03/30 01:18:02;;;;;;;13.98;5.43;;;;;;;;;;4978074;28;20027;-71
2023/03/30 01:21:07;;;;;;;12.05;5.80;;;;;;;;;;4977025;28;20046;-72
2023/03/30 01:24:14;;;;;;;9.40;5.72;;;;;;;;;;4976752;28;20051;-73
2023/03/30 01:27:26;;;;;;;8.88;5.47;;;;;;;;;;4977266;28;20117;-71
2023/03/30 01:30:15;;;;;;;7.78;5.00;;;;;;;;;;4957939;28;20049;-72
2023/03/30 01:33:09;;;;;;;7.72;5.18;;;;;;;;;;4976144;28;20054;-72
2023/03/30 01:36:07;;;;;;;8.93;5.80;;;;;;;;;;4976478;28;20030;-72
2023/03/30 01:38:52;;;;;;;11.55;5.65;;;;;;;;;;4976738;28;20530;-72
2023/03/30 01:41:44;;;;;;;7.47;5.10;;;;;;;;;;4976452;28;20019;-73
2023/03/30 01:44:36;;;;;;;12.07;5.18;;;;;;;;;;4962553;28;20035;-71
2023/03/30 01:47:28;;;;;;;11.45;5.85;;;;;;;;;;4976302;28;20439;-73
2023/03/30 01:50:29;;;;;;;8.20;5.43;;;;;;;;;;4976259;28;20023;-73
2023/03/30 01:53:34;;;;;;;8.77;5.88;;;;;;;;;;4976766;28;20031;-73
2023/03/30 01:56:20;;;;;;;9.07;5.35;;;;;;;;;;4976786;28;20407;-72
2023/03/30 01:59:10;;;;;;;8.95;5.07;;;;;;;;;;4977444;28;20031;-71
2023/03/30 02:02:02;;;;;;;8.98;5.50;;;;;;;;;;4976597;28;20023;-72
2023/03/30 02:04:52;;;;;;;10.73;5.88;;;;;;;;;;4976928;28;20055;-73
2023/03/30 02:07:40;;;;;;;14.43;6.50;;;;;;;;;;4977096;28;20019;-75
2023/03/30 02:10:30;;;;;;;12.48;6.47;;;;;;;;;;4978761;28;20050;-71
2023/03/30 02:13:18;;;;;;;13.35;6.32;;;;;;;;;;4980217;28;20118;-72
2023/03/30 02:16:15;;;;;;;9.52;6.28;;;;;;;;;;4980975;28;20355;-72
2023/03/30 02:19:01;;;;;;;11.65;6.88;;;;;;;;;;4980475;28;20058;-72
2023/03/30 02:21:46;;;;;;;9.50;5.93;;;;;;;;;;4979841;28;20026;-72
2023/03/30 02:24:32;;;;;;;10.18;6.38;;;;;;;;;;4979967;28;20121;-72
2023/03/30 02:27:18;;;;;;;9.43;6.22;;;;;;;;;;4979699;28;20030;-73
2023/03/30 02:30:04;;;;;;;10.50;5.82;;;;;;;;;;4979758;28;20082;-73
2023/03/30 02:32:55;;;;;;;11.85;7.28;;;;;;;;;;4979182;28;20051;-72
2023/03/30 02:35:46;;;;;;;13.40;7.10;;;;;;;;;;4980189;28;20011;-72
2023/03/30 02:38:37;;;;;;;12.32;7.60;;;;;;;;;;4964914;28;20114;-72
2023/03/30 02:41:31;;;;;;;13.73;8.15;;;;;;;;;;4979045;28;20037;-72
2023/03/30 02:44:40;;;;;;;14.20;7.95;;;;;;;;;;4979545;28;20058;-72
2023/03/30 02:47:31;;;;;;;13.00;6.93;;;;;;;;;;4978976;28;20102;-72
2023/03/30 02:50:20;;;;;;;14.52;6.80;;;;;;;;;;4980057;28;20041;-73
2023/03/30 02:53:25;;;;;;;14.73;6.93;;;;;;;;;;4979653;28;20419;-72
2023/03/30 02:56:13;;;;;;;11.10;6.97;;;;;;;;;;4979669;28;20077;-74
2023/03/30 02:59:02;;;;;;;12.90;6.80;;;;;;;;;;4979374;28;20067;-73
2023/03/30 03:01:51;;;;;;;11.82;6.78;;;;;;;;;;4965559;28;20404;-72
2023/03/30 03:04:37;;;;;;;11.27;6.68;;;;;;;;;;4979926;28;20443;-72
2023/03/30 03:07:23;;;;;;;12.05;6.40;;;;;;;;;;4987842;28;20105;-71
2023/03/30 03:10:11;;;;;;;10.18;6.70;;;;;;;;;;4981419;28;20157;-72
2023/03/30 03:12:57;;;;;;;10.80;6.60;;;;;;;;;;4964098;28;20073;-72
2023/03/30 03:15:44;;;;;;;14.85;7.53;;;;;;;;;;4978784;28;20106;-73
2023/03/30 03:18:30;;;;;;;17.80;7.97;;;;;;;;;;4979283;28;20030;-72
2023/03/30 03:21:16;;;;;;;13.23;8.05;;;;;;;;;;4979057;28;20113;-72
2023/03/30 03:24:02;;;;;;;15.40;7.72;;;;;;;;;;4966386;28;20138;-71
2023/03/30 03:26:48;;;;;;;16.23;8.27;;;;;;;;;;4971400;28;20027;-72
2023/03/30 03:29:33;;;;;;;18.30;7.95;;;;;;;;;;4965801;28;20128;-72
2023/03/30 03:32:19;;;;;;;12.65;7.30;;;;;;;;;;4963811;28;20447;-72
2023/03/30 03:35:05;;;;;;;14.18;7.80;;;;;;;;;;4979057;28;20456;-72
2023/03/30 03:37:50;;;;;;;15.82;7.72;;;;;;;;;;4978345;28;20076;-74
2023/03/30 03:40:36;;;;;;;13.30;7.40;;;;;;;;;;4964558;28;20033;-74
2023/03/30 03:43:22;;;;;;;12.40;6.93;;;;;;;;;;4964292;28;20426;-73
2023/03/30 03:46:08;;;;;;;11.38;6.88;;;;;;;;;;4978770;28;20027;-73
2023/03/30 03:48:53;;;;;;;11.43;7.32;;;;;;;;;;4977968;28;20363;-72
2023/03/30 03:51:39;;;;;;;12.32;7.55;;;;;;;;;;4964968;28;20090;-72
2023/03/30 03:54:24;;;;;;;16.80;7.32;;;;;;;;;;4977725;28;20042;-72
2023/03/30 03:57:10;;;;;;;13.00;7.45;;;;;;;;;;4977193;28;20026;-73
2023/03/30 03:59:58;;;;;;;12.50;7.53;;;;;;;;;;4963884;28;20459;-71
2023/03/30 04:02:44;;;;;;;14.02;8.07;;;;;;;;;;4977979;28;20031;-71
2023/03/30 04:05:30;;;;;;;13.65;7.47;;;;;;;;;;4978204;28;20023;-73
2023/03/30 04:08:16;;;;;;;15.32;8.48;;;;;;;;;;4978786;28;20068;-71
2023/03/30 04:11:06;;;;;;;16.95;9.02;;;;;;;;;;4978146;28;20355;-72
2023/03/30 04:13:52;;;;;;;17.75;8.93;;;;;;;;;;4977970;28;20023;-73
2023/03/30 04:16:37;;;;;;;20.42;8.82;;;;;;;;;;4976792;28;20049;-74
2023/03/30 04:19:24;;;;;;;16.65;8.45;;;;;;;;;;4962619;28;20026;-73
2023/03/30 04:22:12;;;;;;;16.58;9.05;;;;;;;;;;4963541;28;20122;-75
2023/03/30 04:24:58;;;;;;;14.80;9.10;;;;;;;;;;4978331;28;20050;-73
2023/03/30 04:27:44;;;;;;;18.83;8.75;;;;;;;;;;4963934;28;20427;-73
2023/03/30 04:30:29;;;;;;;20.02;10.13;;;;;;;;;;4977481;28;20057;-72
2023/03/30 04:33:15;;;;;;;29.83;11.13;;;;;;;;;;4962190;28;20027;-74
2023/03/30 04:36:00;;;;;;;33.63;12.98;;;;;;;;;;4963344;28;20046;-74
2023/03/30 04:39:02;;;;;;;27.77;11.57;;;;;;;;;;4977440;28;20026;-72
2023/03/30 04:41:50;;;;;;;30.02;12.68;;;;;;;;;;4976814;28;20039;-73
2023/03/30 04:44:35;;;;;;;32.92;12.68;;;;;;;;;;4977169;28;20037;-72
2023/03/30 04:47:21;;;;;;;27.92;11.77;;;;;;;;;;4977186;28;20362;-72
2023/03/30 04:50:06;;;;;;;31.85;12.65;;;;;;;;;;4976989;28;20027;-72
2023/03/30 04:52:52;;;;;;;30.58;12.60;;;;;;;;;;4976572;28;20095;-74
2023/03/30 04:55:38;;;;;;;34.35;12.18;;;;;;;;;;4963302;28;20026;-74
2023/03/30 04:58:23;;;;;;;31.77;11.50;;;;;;;;;;4977116;28;20058;-72
2023/03/30 05:01:09;;;;;;;30.77;12.18;;;;;;;;;;4961524;28;20034;-73
2023/03/30 05:03:54;;;;;;;27.90;11.68;;;;;;;;;;4977115;28;20447;-73
2023/03/30 05:06:40;;;;;;;23.08;11.18;;;;;;;;;;4977176;28;20105;-72
2023/03/30 05:09:26;;;;;;;21.83;10.65;;;;;;;;;;4976986;28;20026;-72
2023/03/30 05:12:13;;;;;;;25.50;13.82;;;;;;;;;;4976845;28;20428;-73
2023/03/30 05:14:59;;;;;;;20.02;10.23;;;;;;;;;;4963098;28;20435;-73
2023/03/30 05:17:44;;;;;;;28.38;10.40;;;;;;;;;;4976423;28;20034;-73
2023/03/30 05:20:30;;;;;;;23.45;11.63;;;;;;;;;;4975432;28;20053;-72
2023/03/30 05:23:16;;;;;;;22.65;11.90;;;;;;;;;;4976386;28;20051;-72
2023/03/30 05:26:03;;;;;;;28.63;13.48;;;;;;;;;;4976533;28;20085;-73
2023/03/30 05:28:49;;;;;;;33.90;14.45;;;;;;;;;;4975794;28;20122;-73
2023/03/30 05:31:35;;;;;;;28.75;13.98;;;;;;;;;;4976283;28;20090;-71
2023/03/30 05:34:20;;;;;;;20.73;11.32;;;;;;;;;;4980471;28;20019;-72
2023/03/30 05:37:06;;;;;;;26.38;12.43;;;;;;;;;;4984861;28;20029;-73
2023/03/30 05:39:52;;;;;;;20.85;10.95;;;;;;;;;;4962990;28;20446;-73
2023/03/30 05:42:37;;;;;;;21.60;10.38;;;;;;;;;;4962618;28;20113;-72
2023/03/30 05:45:23;;;;;;;24.20;9.43;;;;;;;;;;4978449;28;20034;-72
2023/03/30 05:48:09;;;;;;;19.83;9.30;;;;;;;;;;4981330;28;20019;-72
2023/03/30 05:50:55;;;;;;;15.05;8.38;;;;;;;;;;4968088;28;20109;-73
2023/03/30 05:53:40;;;;;;;26.00;14.43;;;;;;;;;;4985025;28;20015;-72
2023/03/30 05:56:26;;;;;;;42.97;22.48;;;;;;;;;;4981683;28;20054;-73
2023/03/30 05:59:12;;;;;;;23.48;12.10;;;;;;;;;;4982230;28;20023;-72
2023/03/30 06:01:58;;;;;;;25.13;11.15;;;;;;;;;;4982359;28;20027;-71
2023/03/30 06:04:44;;;;;;;23.33;12.68;;;;;;;;;;4986400;28;20086;-75
2023/03/30 06:07:29;;;;;;;23.92;11.02;;;;;;;;;;4984382;28;20034;-72
2023/03/30 06:10:16;;;;;;;19.88;10.80;;;;;;;;;;4970066;28;20078;-72
2023/03/30 06:13:02;;;;;;;21.58;10.32;;;;;;;;;;4979229;28;20019;-73
2023/03/30 06:15:48;;;;;;;22.08;10.52;;;;;;;;;;4980149;28;20066;-73
2023/03/30 06:18:33;;;;;;;18.40;10.80;;;;;;;;;;4979078;28;20022;-71
2023/03/30 06:21:19;;;;;;;21.17;10.98;;;;;;;;;;4979469;28;20070;-74
2023/03/30 06:24:05;;;;;;;21.00;10.23;;;;;;;;;;4979001;28;20066;-72
2023/03/30 06:26:50;;;;;;;21.35;9.15;;;;;;;;;;4978406;28;20027;-74
2023/03/30 06:29:37;;;;;;;13.25;7.20;;;;;;;;;;4965191;28;20055;-72
2023/03/30 06:32:22;;;;;;;13.05;7.45;;;;;;;;;;4965765;28;20023;-72
2023/03/30 06:35:08;;;;;;;14.52;6.70;;;;;;;;;;4979591;28;20022;-74
2023/03/30 06:37:54;;;;;;;11.50;6.93;;;;;;;;;;4980623;28;20054;-76
2023/03/30 06:40:40;;;;;;;10.93;6.25;;;;;;;;;;4979823;28;20340;-74
2023/03/30 06:43:25;;;;;;;10.68;6.05;;;;;;;;;;4980115;28;20035;-72
2023/03/30 06:46:12;;;;;;;15.13;6.47;;;;;;;;;;4978692;28;20089;-73
2023/03/30 06:48:58;;;;;;;9.85;5.80;;;;;;;;;;4978959;28;20038;-73
2023/03/30 06:51:43;;;;;;;11.68;6.00;;;;;;;;;;4979733;28;20440;-74
2023/03/30 06:54:29;;;;;;;11.48;6.57;;;;;;;;;;4966244;28;20037;-73
2023/03/30 06:57:14;;;;;;;13.07;6.07;;;;;;;;;;4978423;28;20019;-74
2023/03/30 07:00:00;;;;;;;8.40;5.88;;;;;;;;;;4978686;28;20337;-74
2023/03/30 07:02:46;;;;;;;22.08;7.53;;;;;;;;;;4979461;28;20026;-72
2023/03/30 07:05:31;;;;;;;10.68;6.35;;;;;;;;;;4978870;28;20085;-73
2023/03/30 07:08:17;;;;;;;15.40;6.78;;;;;;;;;;4978352;28;20054;-74
2023/03/30 07:11:03;;;;;;;10.52;6.45;;;;;;;;;;4979252;28;20023;-73
2023/03/30 07:13:49;;;;;;;10.00;6.70;;;;;;;;;;4979959;28;20015;-73
2023/03/30 07:16:35;;;;;;;9.98;6.55;;;;;;;;;;4979004;28;20018;-72
2023/03/30 07:19:20;;;;;;;11.90;6.75;;;;;;;;;;4978841;28;20102;-73
2023/03/30 07:22:06;;;;;;;12.77;7.45;;;;;;;;;;4964337;28;20027;-75
2023/03/30 07:24:53;;;;;;;11.63;7.05;;;;;;;;;;4979259;28;20333;-72
2023/03/30 07:27:39;;;;;;;13.13;7.15;;;;;;;;;;4965115;28;20038;-73
2023/03/30 07:30:26;;;;;;;27.33;8.25;;;;;;;;;;4978286;28;20031;-72
2023/03/30 07:33:13;;;;;;;11.93;7.57;;;;;;;;;;4965494;28;20023;-73
2023/03/30 07:35:59;;;;;;;16.02;7.97;;;;;;;;;;4978720;28;20035;-73
2023/03/30 07:38:45;;;;;;;14.10;7.28;;;;;;;;;;4965145;28;20026;-72
2023/03/30 07:41:30;;;;;;;13.07;6.90;;;;;;;;;;4964413;28;20023;-73
2023/03/30 07:44:16;;;;;;;12.07;7.03;;;;;;;;;;4977757;28;20027;-73
2023/03/30 07:47:03;;;;;;;13.23;6.70;;;;;;;;;;4977055;28;20444;-74
2023/03/30 07:49:48;;;;;;;11.00;7.10;;;;;;;;;;4979416;28;20026;-72
2023/03/30 07:52:34;;;;;;;13.07;7.55;;;;;;;;;;4977656;28;20558;-73
2023/03/30 07:55:20;;;;;;;15.25;6.80;;;;;;;;;;4977678;28;20022;-73
2023/03/30 07:58:06;;;;;;;20.17;7.32;;;;;;;;;;4964397;28;20023;-72
2023/03/30 08:00:52;;;;;;;9.82;6.63;;;;;;;;;;4982493;28;20019;-71
2023/03/30 08:03:38;;;;;;;10.68;7.07;;;;;;;;;;4988932;28;20038;-73
2023/03/30 08:06:24;;;;;;;14.70;8.60;;;;;;;;;;4978411;28;20383;-72
2023/03/30 08:09:09;;;;;;;12.80;7.30;;;;;;;;;;4977345;28;20023;-72
2023/03/30 08:11:56;;;;;;;14.90;8.02;;;;;;;;;;4977790;28;20490;-73
2023/03/30 08:14:41;;;;;;;15.13;7.55;;;;;;;;;;4978646;28;20055;-73
2023/03/30 08:17:27;;;;;;;11.75;6.90;;;;;;;;;;4978401;28;20451;-73
2023/03/30 08:20:14;;;;;;;14.32;7.07;;;;;;;;;;4987285;28;20019;-72
2023/03/30 08:23:00;;;;;;;9.60;5.55;;;;;;;;;;4969951;28;20059;-72
2023/03/30 08:25:50;;;;;;;14.93;6.55;;;;;;;;;;4978057;28;20035;-73
2023/03/30 08:28:35;;;;;;;6.55;4.97;;;;;;;;;;4977733;28;20034;-73
2023/03/30 08:31:21;;;;;;;9.38;5.13;;;;;;;;;;4977499;28;20103;-73
2023/03/30 08:34:07;;;;;;;8.27;4.80;;;;;;;;;;4978081;28;20014;-74
2023/03/30 08:36:53;;;;;;;6.68;4.65;;;;;;;;;;4963665;28;20030;-74
2023/03/30 08:39:39;;;;;;;5.32;3.60;;;;;;;;;;4977596;28;20022;-74
2023/03/30 08:42:30;;;;;;;3.88;2.60;;;;;;;;;;4976596;28;20027;-74
2023/03/30 08:45:17;;;;;;;4.50;2.90;;;;;;;;;;4978301;28;20022;-75
2023/03/30 08:48:05;;;;;;;4.57;2.83;;;;;;;;;;4977832;28;20403;-73
2023/03/30 08:50:58;;;;;;;4.78;2.75;;;;;;;;;;4963191;28;20037;-74
2023/03/30 08:53:43;;;;;;;4.47;3.05;;;;;;;;;;4977704;28;20043;-73
2023/03/30 08:56:30;;;;;;;3.42;2.50;;;;;;;;;;4977872;28;20031;-73
2023/03/30 08:59:25;;;;;;;5.50;3.00;;;;;;;;;;4977976;28;20085;-73
2023/03/30 09:02:23;;;;;;;12.07;3.17;;;;;;;;;;4977649;28;20438;-73
2023/03/30 09:05:08;;;;;;;5.25;2.95;;;;;;;;;;4977381;28;20324;-73
2023/03/30 09:08:00;;;;;;;7.30;2.80;;;;;;;;;;4976666;28;20092;-74
2023/03/30 09:10:48;;;;;;;4.53;3.10;;;;;;;;;;4977399;28;20093;-74
2023/03/30 09:13:36;;;;;;;4.90;2.88;;;;;;;;;;4977464;28;20031;-74
2023/03/30 09:16:34;;;;;;;5.97;3.50;;;;;;;;;;4978326;28;20067;-71
2023/03/30 09:19:24;;;;;;;4.60;3.30;;;;;;;;;;4976209;28;20091;-73
2023/03/30 09:22:11;;;;;;;13.20;4.82;;;;;;;;;;4962729;28;20502;-73
2023/03/30 09:24:58;;;;;;;8.90;4.07;;;;;;;;;;4977596;28;20442;-72
2023/03/30 09:27:57;;;;;;;5.68;2.80;;;;;;;;;;4963292;28;20023;-73
2023/03/30 09:30:48;;;;;;;4.70;2.75;;;;;;;;;;4963631;28;20085;-73
2023/03/30 09:33:44;;;;;;;7.57;4.47;;;;;;;;;;4976984;28;20477;-72
2023/03/30 09:36:48;;;;;;;4.97;3.00;;;;;;;;;;4976990;28;20027;-73
2023/03/30 09:39:34;;;;;;;9.10;3.25;;;;;;;;;;4976763;28;20031;-73
2023/03/30 09:42:38;;;;;;;4.60;3.17;;;;;;;;;;4977037;28;20339;-73
2023/03/30 09:45:27;;;;;;;5.95;3.20;;;;;;;;;;4977080;28;20034;-74
2023/03/30 09:48:15;;;;;;;4.78;3.00;;;;;;;;;;4977022;28;20034;-73
2023/03/30 09:51:00;;;;;;;7.35;3.67;;;;;;;;;;4963047;28;20049;-74
2023/03/30 09:53:48;;;;;;;6.00;3.15;;;;;;;;;;4977020;28;20102;-73
2023/03/30 09:56:33;;;;;;;5.50;2.95;;;;;;;;;;4949654;28;20349;-73
2023/03/30 09:59:28;;;;;;;4.22;3.00;;;;;;;;;;4961724;28;20026;-73
2023/03/30 10:02:16;;;;;;;6.18;3.00;;;;;;;;;;4961153;28;20026;-74
2023/03/30 10:05:02;;;;;;;5.10;3.10;;;;;;;;;;4976847;28;20105;-74
2023/03/30 10:07:52;;;;;;;4.32;2.97;;;;;;;;;;4977362;28;20055;-73
2023/03/30 10:10:39;;;;;;;6.38;3.47;;;;;;;;;;4962804;28;20027;-73
2023/03/30 10:13:36;;;;;;;6.32;3.28;;;;;;;;;;4977331;28;20023;-73
2023/03/30 10:16:27;;;;;;;10.52;3.88;;;;;;;;;;4976000;28;20415;-75
2023/03/30 10:19:17;;;;;;;6.68;3.28;;;;;;;;;;4962782;28;20026;-73
2023/03/30 10:22:12;;;;;;;6.32;3.17;;;;;;;;;;4976254;28;20027;-74
2023/03/30 10:24:58;;;;;;;6.18;3.50;;;;;;;;;;4964182;28;20037;-73
2023/03/30 10:27:44;;;;;;;6.15;3.67;;;;;;;;;;4965815;28;20087;-72
2023/03/30 10:30:30;;;;;;;5.55;3.17;;;;;;;;;;4978276;28;20039;-72
2023/03/30 10:33:16;;;;;;;4.53;3.38;;;;;;;;;;4965077;28;20027;-73
2023/03/30 10:36:01;;;;;;;7.30;3.47;;;;;;;;;;4980042;28;20021;-73
2023/03/30 10:38:48;;;;;;;5.13;3.53;;;;;;;;;;4980347;28;20019;-73
2023/03/30 10:41:35;;;;;;;5.78;3.60;;;;;;;;;;4980147;28;20030;-74
2023/03/30 10:44:26;;;;;;;4.85;3.20;;;;;;;;;;4965700;28;20027;-73
2023/03/30 10:47:18;;;;;;;8.18;3.60;;;;;;;;;;4968914;28;20034;-73
2023/03/30 10:50:19;;;;;;;6.82;3.40;;;;;;;;;;4987052;28;20263;-73
2023/03/30 10:53:13;;;;;;;6.22;3.40;;;;;;;;;;4979076;28;20037;-73
2023/03/30 10:56:08;;;;;;;4.80;3.47;;;;;;;;;;4979388;28;20038;-73
2023/03/30 10:59:13;;;;;;;6.15;3.72;;;;;;;;;;4979755;28;20027;-72
2023/03/30 11:01:59;;;;;;;5.97;3.50;;;;;;;;;;4979823;28;20348;-75
2023/03/30 11:05:08;;;;;;;7.05;3.60;;;;;;;;;;4965320;28;20030;-73
2023/03/30 11:08:00;;;;;;;7.78;3.40;;;;;;;;;;4953391;28;20201;-74
2023/03/30 11:10:51;;;;;;;4.07;2.92;;;;;;;;;;4978936;28;20101;-73
2023/03/30 11:13:38;;;;;;;5.03;3.58;;;;;;;;;;4989496;28;20019;-74
2023/03/30 11:16:30;;;;;;;5.18;3.45;;;;;;;;;;4998282;28;20106;-74
2023/03/30 11:19:19;;;;;;;9.38;3.75;;;;;;;;;;4997546;28;20101;-72
2023/03/30 11:22:17;;;;;;;4.70;2.97;;;;;;;;;;4983629;28;20038;-74
2023/03/30 11:25:08;;;;;;;3.55;3.03;;;;;;;;;;4998521;28;20030;-74
2023/03/30 11:28:12;;;;;;;4.38;3.33;;;;;;;;;;4996624;28;20474;-74
2023/03/30 11:31:01;;;;;;;4.95;3.78;;;;;;;;;;4997120;28;20068;-74
2023/03/30 11:33:50;;;;;;;7.40;3.83;;;;;;;;;;4998100;28;20037;-73
2023/03/30 11:36:42;;;;;;;9.23;4.00;;;;;;;;;;4997219;28;20022;-72
2023/03/30 11:39:30;;;;;;;7.55;3.90;;;;;;;;;;5000022;28;20026;-72
2023/03/30 11:42:36;;;;;;;4.00;3.45;;;;;;;;;;4998843;28;20026;-72
2023/03/30 11:45:40;;;;;;;13.05;3.58;;;;;;;;;;4998237;28;20077;-72
2023/03/30 11:48:28;;;;;;;6.05;3.40;;;;;;;;;;4997790;28;20096;-75
2023/03/30 11:51:14;;;;;;;5.90;3.90;;;;;;;;;;4997296;28;20084;-73
2023/03/30 11:54:18;;;;;;;4.93;3.50;;;;;;;;;;4996840;28;20022;-73
2023/03/30 11:57:14;;;;;;;4.97;3.08;;;;;;;;;;4997070;28;20022;-72
2023/03/30 12:00:08;;;;;;;5.28;3.60;;;;;;;;;;4997576;28;20038;-73
2023/03/30 12:03:00;;;;;;;8.85;3.47;;;;;;;;;;4996679;28;20371;-73
2023/03/30 12:05:49;;;;;;;4.55;3.20;;;;;;;;;;4995668;28;20026;-71
2023/03/30 12:08:51;;;;;;;9.88;4.05;;;;;;;;;;4995767;28;20049;-73
2023/03/30 12:11:55;;;;;;;6.30;4.13;;;;;;;;;;4997412;28;20057;-73
2023/03/30 12:14:41;;;;;;;6.65;4.22;;;;;;;;;;4997037;28;20018;-73
2023/03/30 12:17:36;;;;;;;6.28;3.58;;;;;;;;;;4995815;28;20366;-73
2023/03/30 12:20:40;;;;;;;4.25;3.00;;;;;;;;;;4995783;28;20026;-74
2023/03/30 12:23:25;;;;;;;6.40;3.10;;;;;;;;;;4995782;28;20108;-73
2023/03/30 12:26:27;;;;;;;4.70;3.00;;;;;;;;;;4996707;28;20455;-76
2023/03/30 12:29:15;;;;;;;5.00;3.10;;;;;;;;;;4997512;28;20073;-76
2023/03/30 12:32:03;;;;;;;4.32;3.25;;;;;;;;;;4995308;28;20439;-73
2023/03/30 12:34:50;;;;;;;5.15;3.25;;;;;;;;;;4996056;28;20022;-73
2023/03/30 12:37:36;;;;;;;5.13;3.42;;;;;;;;;;4996886;28;20052;-73
2023/03/30 12:40:24;;;;;;;4.85;3.53;;;;;;;;;;4995979;28;20030;-73
2023/03/30 12:43:17;;;;;;;8.27;3.60;;;;;;;;;;4996260;28;20026;-75
2023/03/30 12:46:24;;;;;;;4.18;2.97;;;;;;;;;;4995493;28;20111;-74
2023/03/30 12:49:31;;;;;;;5.43;2.97;;;;;;;;;;4994914;28;20455;-74
2023/03/30 12:52:23;;;;;;;5.32;3.35;;;;;;;;;;4996426;28;20023;-74
2023/03/30 12:55:22;;;;;;;6.72;3.53;;;;;;;;;;4994963;28;20076;-75
2023/03/30 12:58:11;;;;;;;4.72;2.95;;;;;;;;;;4981377;28;20126;-75
2023/03/30 13:01:15;;;;;;;5.15;2.92;;;;;;;;;;4992400;28;20081;-72
2023/03/30 13:04:04;;;;;;;3.95;2.60;;;;;;;;;;5001053;28;20022;-73
2023/03/30 13:06:55;;;;;;;4.15;2.55;;;;;;;;;;4995678;28;20027;-73
2023/03/30 13:10:01;;;;;;;9.35;2.90;;;;;;;;;;4994991;28;20026;-75
2023/03/30 13:12:48;;;;;;;3.88;2.75;;;;;;;;;;4986062;28;20421;-73
2023/03/30 13:15:45;;;;;;;6.05;2.85;;;;;;;;;;4987358;28;20085;-74
2023/03/30 13:18:32;;;;;;;6.28;2.72;;;;;;;;;;4983895;28;20117;-72
2023/03/30 13:21:19;;;;;;;4.72;3.05;;;;;;;;;;5000278;28;20451;-73
2023/03/30 13:24:27;;;;;;;5.45;2.80;;;;;;;;;;4996673;28;20060;-72
2023/03/30 13:27:12;;;;;;;4.75;2.70;;;;;;;;;;4981490;28;20430;-72
2023/03/30 13:30:09;;;;;;;6.15;2.60;;;;;;;;;;4994784;28;20034;-73
2023/03/30 13:33:14;;;;;;;7.53;2.90;;;;;;;;;;4994877;28;20101;-72
2023/03/30 13:36:22;;;;;;;6.80;3.42;;;;;;;;;;4980853;28;20354;-72
2023/03/30 13:39:26;;;;;;;5.45;2.95;;;;;;;;;;4995897;28;20026;-72
2023/03/30 13:42:24;;;;;;;6.20;3.47;;;;;;;;;;4994506;28;20030;-71
2023/03/30 13:45:21;;;;;;;3.67;2.95;;;;;;;;;;4994641;28;20041;-72
2023/03/30 13:48:25;;;;;;;3.83;3.17;;;;;;;;;;4994773;28;20454;-74
2023/03/30 13:51:12;;;;;;;4.07;3.10;;;;;;;;;;4981092;28;20157;-72
2023/03/30 13:54:13;;;;;;;5.50;2.85;;;;;;;;;;4995320;28;20359;-73
2023/03/30 13:57:02;;;;;;;3.88;2.78;;;;;;;;;;4994974;28;20030;-71
2023/03/30 13:59:58;;;;;;;5.65;3.05;;;;;;;;;;4994841;28;20012;-71
2023/03/30 14:02:43;;;;;;;5.90;3.20;;;;;;;;;;4996065;28;20022;-72
2023/03/30 14:05:31;;;;;;;9.32;3.58;;;;;;;;;;4995500;28;20144;-71
2023/03/30 14:08:18;;;;;;;5.80;3.22;;;;;;;;;;4998278;28;20014;-71
2023/03/30 14:11:15;;;;;;;7.03;3.33;;;;;;;;;;4997472;28;20034;-70
2023/03/30 14:14:02;;;;;;;7.00;3.60;;;;;;;;;;4998205;28;20027;-71
2023/03/30 14:16:47;;;;;;;6.38;3.20;;;;;;;;;;4998283;28;20022;-74
2023/03/30 14:19:35;;;;;;;5.05;2.80;;;;;;;;;;4999463;28;20026;-73
2023/03/30 14:22:23;;;;;;;4.40;2.95;;;;;;;;;;4997752;28;20783;-73
2023/03/30 14:25:25;;;;;;;5.40;3.28;;;;;;;;;;4983489;28;20034;-74
2023/03/30 14:28:13;;;;;;;4.47;3.28;;;;;;;;;;4999064;28;20034;-73
2023/03/30 14:31:03;;;;;;;4.60;3.40;;;;;;;;;;4998561;28;20026;-73
2023/03/30 14:33:49;;;;;;;4.93;3.40;;;;;;;;;;4998394;28;20022;-73
2023/03/30 14:36:35;;;;;;;4.88;3.35;;;;;;;;;;4997924;28;20018;-74
2023/03/30 14:39:22;;;;;;;4.63;2.90;;;;;;;;;;4997054;28;20030;-74
2023/03/30 14:42:17;;;;;;;6.40;3.05;;;;;;;;;;4983446;28;20110;-74
2023/03/30 14:45:07;;;;;;;6.53;3.47;;;;;;;;;;4997512;28;20026;-73
2023/03/30 14:47:55;;;;;;;4.93;2.97;;;;;;;;;;4999602;28;20022;-73
2023/03/30 14:50:40;;;;;;;3.95;2.63;;;;;;;;;;4997924;28;20022;-73
2023/03/30 14:53:27;;;;;;;4.47;2.13;;;;;;;;;;4997975;28;20064;-78
2023/03/30 14:56:13;;;;;;;2.95;2.10;;;;;;;;;;4999031;28;20362;-73
2023/03/30 14:58:59;;;;;;;5.75;2.45;;;;;;;;;;4999318;28;20022;-73
2023/03/30 15:01:45;;;;;;;6.00;2.70;;;;;;;;;;4999747;28;20034;-73
2023/03/30 15:04:32;;;;;;;10.00;2.50;;;;;;;;;;5001214;28;20530;-73
2023/03/30 15:07:19;;;;;;;3.53;2.30;;;;;;;;;;4999178;28;20022;-74
2023/03/30 15:10:05;;;;;;;4.40;2.40;;;;;;;;;;4986068;28;20026;-76
2023/03/30 15:12:53;;;;;;;4.88;2.78;;;;;;;;;;4997913;28;20442;-76
2023/03/30 15:15:38;;;;;;;4.50;2.85;;;;;;;;;;4984632;28;20025;-76
2023/03/30 15:18:28;;;;;;;5.93;3.17;;;;;;;;;;4998088;28;20041;-75
2023/03/30 15:21:14;;;;;;;7.75;2.92;;;;;;;;;;4998355;28;20454;-76
2023/03/30 15:24:00;;;;;;;5.75;3.30;;;;;;;;;;5006659;28;20103;-76
2023/03/30 15:26:47;;;;;;;6.82;3.10;;;;;;;;;;5004587;28;20052;-74
2023/03/30 15:29:33;;;;;;;5.57;2.92;;;;;;;;;;5002683;28;20117;-75
2023/03/30 15:32:30;;;;;;;5.60;2.78;;;;;;;;;;5003888;28;20552;-76
2023/03/30 15:35:21;;;;;;;5.85;2.88;;;;;;;;;;4999373;28;20025;-77
2023/03/30 15:38:10;;;;;;;3.97;2.83;;;;;;;;;;4985739;28;20022;-74
2023/03/30 15:40:56;;;;;;;7.22;3.33;;;;;;;;;;4998825;28;20038;-75
2023/03/30 15:43:58;;;;;;;4.80;3.08;;;;;;;;;;5012662;28;20023;-76
2023/03/30 15:46:46;;;;;;;7.22;3.80;;;;;;;;;;4994672;28;20030;-74
2023/03/30 15:49:38;;;;;;;5.53;3.40;;;;;;;;;;4998232;28;20023;-75
2023/03/30 15:52:30;;;;;;;5.28;3.50;;;;;;;;;;4982782;28;20018;-74
2023/03/30 15:55:17;;;;;;;6.57;3.35;;;;;;;;;;4995545;28;20339;-81
2023/03/30 15:58:03;;;;;;;6.13;3.50;;;;;;;;;;4981687;28;20026;-77
2023/03/30 16:00:49;;;;;;;6.05;3.85;;;;;;;;;;4995495;28;20057;-78
2023/03/30 16:03:39;;;;;;;4.60;3.50;;;;;;;;;;4996597;28;20086;-78
2023/03/30 16:06:24;;;;;;;7.72;4.10;;;;;;;;;;4983111;28;20113;-78
2023/03/30 16:09:10;;;;;;;5.95;3.90;;;;;;;;;;4981960;28;20061;-77
2023/03/30 16:11:57;;;;;;;10.65;4.07;;;;;;;;;;4982134;28;20025;-79
2023/03/30 16:14:42;;;;;;;8.75;4.10;;;;;;;;;;4997845;28;20101;-80
2023/03/30 16:17:28;;;;;;;6.97;3.55;;;;;;;;;;4983766;28;20030;-78
2023/03/30 16:20:25;;;;;;;6.22;3.30;;;;;;;;;;4996256;28;20030;-79
2023/03/30 16:23:11;;;;;;;7.90;3.47;;;;;;;;;;4982104;28;20050;-78
2023/03/30 16:25:57;;;;;;;4.50;3.40;;;;;;;;;;4996378;28;20538;-78
2023/03/30 16:28:43;;;;;;;5.15;3.40;;;;;;;;;;4997443;28;20093;-78
2023/03/30 16:31:28;;;;;;;5.40;3.17;;;;;;;;;;4997306;28;20451;-78
2023/03/30 16:34:14;;;;;;;9.35;3.15;;;;;;;;;;4981607;28;20026;-78
2023/03/30 16:37:00;;;;;;;11.10;3.67;;;;;;;;;;4995786;28;20027;-78
2023/03/30 16:39:47;;;;;;;11.50;3.83;;;;;;;;;;4996218;28;20470;-75
2023/03/30 16:42:32;;;;;;;5.15;3.33;;;;;;;;;;4997143;28;20030;-74
2023/03/30 16:45:18;;;;;;;9.07;3.80;;;;;;;;;;4995733;28;20029;-76
2023/03/30 16:48:04;;;;;;;12.60;3.95;;;;;;;;;;4981979;28;20117;-74